createdAt,value
2019-06-15T00:00:55.638Z,19.56
2019-06-15T00:01:55.609Z,19.55
2019-06-15T00:02:55.602Z,19.58
2019-06-15T00:03:55.589Z,19.59
2019-06-15T00:04:55.586Z,19.51
2019-06-15T00:05:55.557Z,19.45
2019-06-15T00:06:55.570Z,19.49
2019-06-15T00:07:55.545Z,19.49
2019-06-15T00:08:55.538Z,19.44
2019-06-15T00:09:55.515Z,19.47
2019-06-15T00:10:55.508Z,19.52
2019-06-15T00:11:55.495Z,19.48
2019-06-15T00:12:55.483Z,19.41
2019-06-15T00:13:55.471Z,19.39
2019-06-15T00:14:55.477Z,19.44
2019-06-15T00:15:55.455Z,19.44
2019-06-15T00:16:55.441Z,19.45
2019-06-15T00:17:55.426Z,19.40
2019-06-15T00:18:55.411Z,19.34
2019-06-15T00:19:55.408Z,19.33
2019-06-15T00:20:55.403Z,19.34
2019-06-15T00:21:55.384Z,19.31
2019-06-15T00:22:55.387Z,19.22
2019-06-15T00:23:55.355Z,19.27
2019-06-15T00:24:55.347Z,19.27
2019-06-15T00:25:55.363Z,19.19
2019-06-15T00:26:55.323Z,19.15
2019-06-15T00:27:55.322Z,19.08
2019-06-15T00:28:55.307Z,19.09
2019-06-15T00:29:55.295Z,18.92
2019-06-15T00:30:55.287Z,18.90
2019-06-15T00:31:55.279Z,18.95
2019-06-15T00:32:55.259Z,18.88
2019-06-15T00:33:55.289Z,18.83
2019-06-15T00:34:55.236Z,18.89
2019-06-15T00:35:55.229Z,18.92
2019-06-15T00:36:55.216Z,18.84
2019-06-15T00:37:55.230Z,18.80
2019-06-15T00:38:55.215Z,18.81
2019-06-15T00:39:55.199Z,18.68
2019-06-15T00:40:55.187Z,18.77
2019-06-15T00:41:55.191Z,18.66
2019-06-15T00:42:55.158Z,18.66
2019-06-15T00:43:55.135Z,18.68
2019-06-15T00:44:55.123Z,18.58
2019-06-15T00:45:55.119Z,18.60
2019-06-15T00:46:55.100Z,18.60
2019-06-15T00:47:55.104Z,18.60
2019-06-15T00:48:55.136Z,18.63
2019-06-15T00:49:55.071Z,18.60
2019-06-15T00:50:55.078Z,18.55
2019-06-15T00:51:55.062Z,18.53
2019-06-15T00:52:55.051Z,18.44
2019-06-15T00:53:55.028Z,18.45
2019-06-15T00:54:55.015Z,18.40
2019-06-15T00:55:55.006Z,18.35
2019-06-15T00:56:54.991Z,18.40
2019-06-15T00:57:54.979Z,18.31
2019-06-15T00:58:55.012Z,18.25
2019-06-15T00:59:54.959Z,18.25
2019-06-15T01:00:54.958Z,18.31
2019-06-15T01:01:54.940Z,18.29
2019-06-15T01:02:54.952Z,18.29
2019-06-15T01:03:54.915Z,18.23
2019-06-15T01:04:54.909Z,18.18
2019-06-15T01:05:54.913Z,18.15
2019-06-15T01:06:54.880Z,18.11
2019-06-15T01:07:54.863Z,18.15
2019-06-15T01:08:54.855Z,18.10
2019-06-15T01:09:54.841Z,18.10
2019-06-15T01:10:54.835Z,18.11
2019-06-15T01:11:54.850Z,17.97
2019-06-15T01:12:54.807Z,17.92
2019-06-15T01:13:54.810Z,17.92
2019-06-15T01:14:54.791Z,17.94
2019-06-15T01:15:54.795Z,17.90
2019-06-15T01:16:54.771Z,17.92
2019-06-15T01:17:54.779Z,17.90
2019-06-15T01:18:54.755Z,17.95
2019-06-15T01:19:54.731Z,17.92
2019-06-15T01:20:54.724Z,17.92
2019-06-15T01:21:54.712Z,17.97
2019-06-15T01:22:54.700Z,18.00
2019-06-15T01:23:54.703Z,18.00
2019-06-15T01:25:05.183Z,17.98
2019-06-15T01:25:55.664Z,18.01
2019-06-15T01:26:54.653Z,17.98
2019-06-15T01:27:54.649Z,17.98
2019-06-15T01:28:54.631Z,18.04
2019-06-15T01:29:54.643Z,18.03
2019-06-15T01:30:54.612Z,18.05
2019-06-15T01:31:54.597Z,18.08
2019-06-15T01:32:54.585Z,18.08
2019-06-15T01:33:54.604Z,18.15
2019-06-15T01:34:54.563Z,18.04
2019-06-15T01:35:54.563Z,18.16
2019-06-15T01:36:54.535Z,18.18
2019-06-15T01:37:54.537Z,18.15
2019-06-15T01:38:54.518Z,18.13
2019-06-15T01:39:54.512Z,18.16
2019-06-15T01:40:54.507Z,18.15
2019-06-15T01:41:54.487Z,18.13
2019-06-15T01:42:54.467Z,18.11
2019-06-15T01:43:54.465Z,18.10
2019-06-15T01:44:54.449Z,18.22
2019-06-15T01:45:54.441Z,18.13
2019-06-15T01:46:54.451Z,18.16
2019-06-15T01:47:54.416Z,18.19
2019-06-15T01:48:54.410Z,18.22
2019-06-15T01:49:54.434Z,18.10
2019-06-15T01:50:54.395Z,18.23
2019-06-15T01:51:54.375Z,18.19
2019-06-15T01:52:54.371Z,18.20
2019-06-15T01:53:54.363Z,18.20
2019-06-15T01:54:54.339Z,18.18
2019-06-15T01:55:54.320Z,18.11
2019-06-15T01:56:54.315Z,18.13
2019-06-15T01:57:54.331Z,18.04
2019-06-15T01:58:54.296Z,18.07
2019-06-15T01:59:54.291Z,18.08
2019-06-15T02:00:54.267Z,18.01
2019-06-15T02:01:54.270Z,18.03
2019-06-15T02:02:54.269Z,18.04
2019-06-15T02:03:54.232Z,18.05
2019-06-15T02:04:54.252Z,18.04
2019-06-15T02:05:54.208Z,18.11
2019-06-15T02:06:54.213Z,18.05
2019-06-15T02:07:54.203Z,18.01
2019-06-15T02:08:54.175Z,18.01
2019-06-15T02:09:54.168Z,17.98
2019-06-15T02:10:54.159Z,18.00
2019-06-15T02:11:54.151Z,18.05
2019-06-15T02:12:54.131Z,17.94
2019-06-15T02:13:54.140Z,17.94
2019-06-15T02:14:54.107Z,17.95
2019-06-15T02:15:54.096Z,17.95
2019-06-15T02:16:54.087Z,17.94
2019-06-15T02:17:54.075Z,17.92
2019-06-15T02:18:54.075Z,17.94
2019-06-15T02:19:54.072Z,17.83
2019-06-15T02:20:54.083Z,17.90
2019-06-15T02:21:54.031Z,17.89
2019-06-15T02:22:54.016Z,17.95
2019-06-15T02:23:54.011Z,17.95
2019-06-15T02:24:54.031Z,17.95
2019-06-15T02:25:53.986Z,17.95
2019-06-15T02:26:53.971Z,18.00
2019-06-15T02:27:53.960Z,17.97
2019-06-15T02:28:53.972Z,17.90
2019-06-15T02:29:53.945Z,17.95
2019-06-15T02:30:53.958Z,17.90
2019-06-15T02:31:53.915Z,17.92
2019-06-15T02:32:53.952Z,17.89
2019-06-15T02:33:53.895Z,17.87
2019-06-15T02:34:53.887Z,17.78
2019-06-15T02:35:53.883Z,17.83
2019-06-15T02:36:53.876Z,17.74
2019-06-15T02:37:53.867Z,17.79
2019-06-15T02:38:53.848Z,17.72
2019-06-15T02:39:53.840Z,17.67
2019-06-15T02:40:53.816Z,17.67
2019-06-15T02:41:53.824Z,17.67
2019-06-15T02:42:53.807Z,17.65
2019-06-15T02:43:53.792Z,17.63
2019-06-15T02:44:53.781Z,17.48
2019-06-15T02:45:53.772Z,17.57
2019-06-15T02:46:53.783Z,17.56
2019-06-15T02:47:53.762Z,17.56
2019-06-15T02:48:53.727Z,17.49
2019-06-15T02:49:53.719Z,17.52
2019-06-15T02:50:53.713Z,17.52
2019-06-15T02:51:53.714Z,17.57
2019-06-15T02:52:53.704Z,17.39
2019-06-15T02:53:53.681Z,17.48
2019-06-15T02:54:53.676Z,17.42
2019-06-15T02:55:53.651Z,17.42
2019-06-15T02:56:53.638Z,17.36
2019-06-15T02:57:53.635Z,17.30
2019-06-15T02:58:53.626Z,17.30
2019-06-15T02:59:53.623Z,17.30
2019-06-15T03:00:53.607Z,17.34
2019-06-15T03:01:53.600Z,17.29
2019-06-15T03:02:53.568Z,17.29
2019-06-15T03:03:53.564Z,17.31
2019-06-15T03:04:53.552Z,17.30
2019-06-15T03:05:53.567Z,17.36
2019-06-15T03:06:53.527Z,17.22
2019-06-15T03:07:53.511Z,17.29
2019-06-15T03:08:53.507Z,17.24
2019-06-15T03:09:53.496Z,17.19
2019-06-15T03:10:53.483Z,17.15
2019-06-15T03:11:53.470Z,17.15
2019-06-15T03:12:53.475Z,17.14
2019-06-15T03:13:53.444Z,17.19
2019-06-15T03:14:53.427Z,17.23
2019-06-15T03:15:53.439Z,17.15
2019-06-15T03:16:53.419Z,17.20
2019-06-15T03:17:53.401Z,17.16
2019-06-15T03:18:53.383Z,17.23
2019-06-15T03:19:53.375Z,17.27
2019-06-15T03:20:53.372Z,17.15
2019-06-15T03:21:53.387Z,17.27
2019-06-15T03:22:53.355Z,17.20
2019-06-15T03:23:53.340Z,17.24
2019-06-15T03:24:53.323Z,17.16
2019-06-15T03:26:04.803Z,17.19
2019-06-15T03:26:54.307Z,17.15
2019-06-15T03:27:53.283Z,17.23
2019-06-15T03:28:53.271Z,17.22
2019-06-15T03:29:53.272Z,17.24
2019-06-15T03:30:53.244Z,17.16
2019-06-15T03:31:53.257Z,17.20
2019-06-15T03:32:53.232Z,17.15
2019-06-15T03:33:53.233Z,17.15
2019-06-15T03:34:53.211Z,17.15
2019-06-15T03:35:53.191Z,17.20
2019-06-15T03:36:53.182Z,17.19
2019-06-15T03:37:53.255Z,17.16
2019-06-15T03:38:53.167Z,17.19
2019-06-15T03:39:53.159Z,17.09
2019-06-15T03:40:53.144Z,17.11
2019-06-15T03:41:53.127Z,17.20
2019-06-15T03:42:53.120Z,17.19
2019-06-15T03:43:53.111Z,17.19
2019-06-15T03:44:53.143Z,17.23
2019-06-15T03:45:53.091Z,17.27
2019-06-15T03:46:53.088Z,17.33
2019-06-15T03:47:53.055Z,17.29
2019-06-15T03:48:53.126Z,17.34
2019-06-15T03:49:53.031Z,17.39
2019-06-15T03:50:53.060Z,17.29
2019-06-15T03:51:53.011Z,17.29
2019-06-15T03:52:53.000Z,17.36
2019-06-15T03:53:52.987Z,17.33
2019-06-15T03:54:52.999Z,17.29
2019-06-15T03:55:52.979Z,17.36
2019-06-15T03:56:53.014Z,17.30
2019-06-15T03:57:52.952Z,17.39
2019-06-15T03:58:52.943Z,17.31
2019-06-15T03:59:52.939Z,17.23
2019-06-15T04:00:52.907Z,17.26
2019-06-15T04:01:52.907Z,17.27
2019-06-15T04:02:52.918Z,17.31
2019-06-15T04:03:52.875Z,17.23
2019-06-15T04:04:52.875Z,17.26
2019-06-15T04:05:52.863Z,17.26
2019-06-15T04:06:52.856Z,17.15
2019-06-15T04:07:52.867Z,17.16
2019-06-15T04:08:52.833Z,17.08
2019-06-15T04:09:52.808Z,17.15
2019-06-15T04:10:52.795Z,17.12
2019-06-15T04:11:52.787Z,17.14
2019-06-15T04:12:52.776Z,17.08
2019-06-15T04:13:52.790Z,17.06
2019-06-15T04:14:52.763Z,17.11
2019-06-15T04:15:52.736Z,17.08
2019-06-15T04:16:52.731Z,17.09
2019-06-15T04:17:52.718Z,17.09
2019-06-15T04:18:52.723Z,17.06
2019-06-15T04:19:52.691Z,17.04
2019-06-15T04:20:52.679Z,17.12
2019-06-15T04:21:52.663Z,17.05
2019-06-15T04:22:52.665Z,17.09
2019-06-15T04:23:52.643Z,17.04
2019-06-15T04:24:52.651Z,17.05
2019-06-15T04:25:52.631Z,17.05
2019-06-15T04:26:52.619Z,17.06
2019-06-15T04:27:52.602Z,17.11
2019-06-15T04:28:52.591Z,17.12
2019-06-15T04:29:52.606Z,17.08
2019-06-15T04:30:52.609Z,17.05
2019-06-15T04:31:52.567Z,17.06
2019-06-15T04:32:52.571Z,17.11
2019-06-15T04:33:52.531Z,17.26
2019-06-15T04:34:52.525Z,17.15
2019-06-15T04:35:52.519Z,17.22
2019-06-15T04:36:52.511Z,17.15
2019-06-15T04:37:52.507Z,17.06
2019-06-15T04:38:52.494Z,17.11
2019-06-15T04:39:52.467Z,17.11
2019-06-15T04:40:52.455Z,17.08
2019-06-15T04:41:52.457Z,17.05
2019-06-15T04:42:52.482Z,17.08
2019-06-15T04:43:52.419Z,17.05
2019-06-15T04:44:52.415Z,17.05
2019-06-15T04:45:52.411Z,17.08
2019-06-15T04:46:52.482Z,17.14
2019-06-15T04:47:52.382Z,17.04
2019-06-15T04:48:52.383Z,17.12
2019-06-15T04:49:52.359Z,17.04
2019-06-15T04:50:52.351Z,17.08
2019-06-15T04:51:52.343Z,17.08
2019-06-15T04:52:52.351Z,17.04
2019-06-15T04:53:52.311Z,17.09
2019-06-15T04:54:52.322Z,17.12
2019-06-15T04:55:52.283Z,17.04
2019-06-15T04:56:52.283Z,17.05
2019-06-15T04:57:52.275Z,17.11
2019-06-15T04:58:52.251Z,17.04
2019-06-15T04:59:52.267Z,17.19
2019-06-15T05:00:52.227Z,17.09
2019-06-15T05:01:52.220Z,17.04
2019-06-15T05:02:52.211Z,17.06
2019-06-15T05:03:52.232Z,17.08
2019-06-15T05:04:52.199Z,17.20
2019-06-15T05:05:52.171Z,17.12
2019-06-15T05:06:52.183Z,17.16
2019-06-15T05:07:52.169Z,17.22
2019-06-15T05:08:52.161Z,17.31
2019-06-15T05:09:52.127Z,17.31
2019-06-15T05:10:52.122Z,17.30
2019-06-15T05:11:52.106Z,17.38
2019-06-15T05:12:52.136Z,17.34
2019-06-15T05:13:52.083Z,17.39
2019-06-15T05:14:52.095Z,17.34
2019-06-15T05:15:52.067Z,17.39
2019-06-15T05:16:52.104Z,17.36
2019-06-15T05:17:52.038Z,17.39
2019-06-15T05:18:52.023Z,17.42
2019-06-15T05:19:52.027Z,17.45
2019-06-15T05:20:52.032Z,17.46
2019-06-15T05:21:52.000Z,17.42
2019-06-15T05:22:51.979Z,17.42
2019-06-15T05:23:51.967Z,17.38
2019-06-15T05:24:51.959Z,17.33
2019-06-15T05:25:51.947Z,17.34
2019-06-15T05:27:05.553Z,17.42
2019-06-15T05:27:52.989Z,17.42
2019-06-15T05:28:51.915Z,17.54
2019-06-15T05:29:51.929Z,17.52
2019-06-15T05:30:51.903Z,17.57
2019-06-15T05:31:51.907Z,17.68
2019-06-15T05:32:51.871Z,17.65
2019-06-15T05:33:51.897Z,17.59
2019-06-15T05:34:51.893Z,17.70
2019-06-15T05:35:51.838Z,17.67
2019-06-15T05:36:51.842Z,17.79
2019-06-15T05:37:51.836Z,17.70
2019-06-15T05:38:51.799Z,17.60
2019-06-15T05:39:51.787Z,17.68
2019-06-15T05:40:51.780Z,17.78
2019-06-15T05:41:51.763Z,17.74
2019-06-15T05:42:51.769Z,17.85
2019-06-15T05:43:51.755Z,17.90
2019-06-15T05:44:51.747Z,17.94
2019-06-15T05:45:51.739Z,17.95
2019-06-15T05:46:51.710Z,17.98
2019-06-15T05:47:51.695Z,18.10
2019-06-15T05:48:51.745Z,18.03
2019-06-15T05:49:51.683Z,18.03
2019-06-15T05:50:51.667Z,18.05
2019-06-15T05:51:51.651Z,18.08
2019-06-15T05:52:51.675Z,18.10
2019-06-15T05:53:51.650Z,17.97
2019-06-15T05:54:51.620Z,18.08
2019-06-15T05:55:51.607Z,18.00
2019-06-15T05:56:51.599Z,18.04
2019-06-15T05:57:51.605Z,18.10
2019-06-15T05:58:51.587Z,18.18
2019-06-15T05:59:51.579Z,18.25
2019-06-15T06:00:51.567Z,18.19
2019-06-15T06:01:51.535Z,18.19
2019-06-15T06:02:51.554Z,18.16
2019-06-15T06:03:51.520Z,18.18
2019-06-15T06:04:51.507Z,18.19
2019-06-15T06:05:51.531Z,18.33
2019-06-15T06:06:51.491Z,18.29
2019-06-15T06:07:51.479Z,18.31
2019-06-15T06:08:51.471Z,18.29
2019-06-15T06:09:51.608Z,18.28
2019-06-15T06:10:51.495Z,18.29
2019-06-15T06:11:51.451Z,18.25
2019-06-15T06:12:51.420Z,18.33
2019-06-15T06:13:51.439Z,18.40
2019-06-15T06:14:51.399Z,18.50
2019-06-15T06:15:51.412Z,18.45
2019-06-15T06:16:51.380Z,18.45
2019-06-15T06:17:51.419Z,18.44
2019-06-15T06:18:51.363Z,18.45
2019-06-15T06:19:51.360Z,18.50
2019-06-15T06:20:51.324Z,18.59
2019-06-15T06:21:51.336Z,18.66
2019-06-15T06:22:51.315Z,18.59
2019-06-15T06:23:51.295Z,18.65
2019-06-15T06:24:51.287Z,18.66
2019-06-15T06:25:51.268Z,18.74
2019-06-15T06:26:51.275Z,18.78
2019-06-15T06:27:51.255Z,18.73
2019-06-15T06:28:57.151Z,18.80
2019-06-15T06:29:52.229Z,18.96
2019-06-15T06:30:51.224Z,18.88
2019-06-15T06:31:51.255Z,18.93
2019-06-15T06:32:51.186Z,18.83
2019-06-15T06:33:51.195Z,18.89
2019-06-15T06:34:51.182Z,18.96
2019-06-15T06:35:51.187Z,18.99
2019-06-15T06:36:51.153Z,18.88
2019-06-15T06:37:51.163Z,18.88
2019-06-15T06:38:51.138Z,18.90
2019-06-15T06:39:51.127Z,18.90
2019-06-15T06:40:51.103Z,18.89
2019-06-15T06:41:51.119Z,18.92
2019-06-15T06:42:51.093Z,18.96
2019-06-15T06:43:51.067Z,18.90
2019-06-15T06:44:51.059Z,18.86
2019-06-15T06:45:51.063Z,18.88
2019-06-15T06:46:51.046Z,18.92
2019-06-15T06:47:51.019Z,18.92
2019-06-15T06:48:51.015Z,18.89
2019-06-15T06:49:51.000Z,19.08
2019-06-15T06:50:50.990Z,19.11
2019-06-15T06:51:50.994Z,19.16
2019-06-15T06:52:51.072Z,19.21
2019-06-15T06:53:50.956Z,19.19
2019-06-15T06:54:50.970Z,19.40
2019-06-15T06:55:50.931Z,19.39
2019-06-15T06:56:50.924Z,19.40
2019-06-15T06:57:54.595Z,19.30
2019-06-15T06:58:51.947Z,19.44
2019-06-15T06:59:50.911Z,19.37
2019-06-15T07:00:50.876Z,19.39
2019-06-15T07:01:50.863Z,19.34
2019-06-15T07:02:50.879Z,19.49
2019-06-15T07:03:50.859Z,19.37
2019-06-15T07:04:50.831Z,19.44
2019-06-15T07:05:50.865Z,19.54
2019-06-15T07:06:50.806Z,19.49
2019-06-15T07:07:50.799Z,19.62
2019-06-15T07:08:50.788Z,19.52
2019-06-15T07:09:50.857Z,19.62
2019-06-15T07:10:50.828Z,19.54
2019-06-15T07:11:50.756Z,19.73
2019-06-15T07:12:50.747Z,19.64
2019-06-15T07:13:50.727Z,19.63
2019-06-15T07:14:50.734Z,19.76
2019-06-15T07:15:50.703Z,19.84
2019-06-15T07:16:50.691Z,19.86
2019-06-15T07:17:50.700Z,20.02
2019-06-15T07:18:50.671Z,20.02
2019-06-15T07:19:50.695Z,19.91
2019-06-15T07:20:50.673Z,19.92
2019-06-15T07:21:50.639Z,19.91
2019-06-15T07:22:50.632Z,19.96
2019-06-15T07:23:50.618Z,19.96
2019-06-15T07:24:50.600Z,19.91
2019-06-15T07:25:50.591Z,19.91
2019-06-15T07:26:50.599Z,19.85
2019-06-15T07:27:50.567Z,19.73
2019-06-15T07:28:50.585Z,19.73
2019-06-15T07:29:50.543Z,19.77
2019-06-15T07:30:50.560Z,19.69
2019-06-15T07:31:50.519Z,19.76
2019-06-15T07:32:50.531Z,19.79
2019-06-15T07:33:50.503Z,19.74
2019-06-15T07:34:50.487Z,19.71
2019-06-15T07:35:50.523Z,19.70
2019-06-15T07:36:50.483Z,19.71
2019-06-15T07:37:50.459Z,19.63
2019-06-15T07:38:50.449Z,19.74
2019-06-15T07:39:50.431Z,19.66
2019-06-15T07:40:50.447Z,19.69
2019-06-15T07:41:50.428Z,19.84
2019-06-15T07:42:50.396Z,19.89
2019-06-15T07:43:50.386Z,19.94
2019-06-15T07:44:50.390Z,19.91
2019-06-15T07:45:50.411Z,20.02
2019-06-15T07:46:50.358Z,20.00
2019-06-15T07:47:50.347Z,20.02
2019-06-15T07:48:50.369Z,19.95
2019-06-15T07:49:50.334Z,19.92
2019-06-15T07:50:50.318Z,19.94
2019-06-15T07:51:50.292Z,20.04
2019-06-15T07:52:50.329Z,19.96
2019-06-15T07:53:50.275Z,20.06
2019-06-15T07:54:50.279Z,20.03
2019-06-15T07:55:50.275Z,20.00
2019-06-15T07:56:50.298Z,20.02
2019-06-15T07:57:50.233Z,20.13
2019-06-15T07:58:50.215Z,20.14
2019-06-15T07:59:50.213Z,20.18
2019-06-15T08:00:50.212Z,20.28
2019-06-15T08:01:50.189Z,20.34
2019-06-15T08:02:50.201Z,20.21
2019-06-15T08:03:50.182Z,20.13
2019-06-15T08:04:50.194Z,20.21
2019-06-15T08:05:50.160Z,20.24
2019-06-15T08:06:50.147Z,20.31
2019-06-15T08:07:50.155Z,20.31
2019-06-15T08:08:50.104Z,20.16
2019-06-15T08:09:50.113Z,20.25
2019-06-15T08:10:50.083Z,20.19
2019-06-15T08:11:50.078Z,20.21
2019-06-15T08:12:50.068Z,20.16
2019-06-15T08:13:50.101Z,20.31
2019-06-15T08:14:50.062Z,20.31
2019-06-15T08:15:50.033Z,20.29
2019-06-15T08:16:50.019Z,20.37
2019-06-15T08:17:50.057Z,20.37
2019-06-15T08:18:50.968Z,20.37
2019-06-15T08:19:50.092Z,20.51
2019-06-15T08:20:49.980Z,20.34
2019-06-15T08:21:49.954Z,20.32
2019-06-15T08:22:49.956Z,20.28
2019-06-15T08:23:49.931Z,20.18
2019-06-15T08:24:49.931Z,20.11
2019-06-15T08:25:49.927Z,20.06
2019-06-15T08:26:49.932Z,20.03
2019-06-15T08:27:49.887Z,20.09
2019-06-15T08:28:49.893Z,20.00
2019-06-15T08:29:49.880Z,19.91
2019-06-15T08:30:49.855Z,19.88
2019-06-15T08:31:49.847Z,19.81
2019-06-15T08:32:49.844Z,19.66
2019-06-15T08:33:49.831Z,19.66
2019-06-15T08:34:49.841Z,19.63
2019-06-15T08:35:49.807Z,19.55
2019-06-15T08:36:49.795Z,19.41
2019-06-15T08:37:49.779Z,19.36
2019-06-15T08:38:49.783Z,19.31
2019-06-15T08:39:49.769Z,19.27
2019-06-15T08:40:49.814Z,19.27
2019-06-15T08:41:49.758Z,19.19
2019-06-15T08:42:49.722Z,19.24
2019-06-15T08:43:49.707Z,19.22
2019-06-15T08:44:49.698Z,19.11
2019-06-15T08:45:49.690Z,19.11
2019-06-15T08:46:49.906Z,19.02
2019-06-15T08:47:49.679Z,18.95
2019-06-15T08:48:49.654Z,18.99
2019-06-15T08:49:49.638Z,18.88
2019-06-15T08:50:49.676Z,18.86
2019-06-15T08:51:49.645Z,18.81
2019-06-15T08:52:49.626Z,18.88
2019-06-15T08:53:49.599Z,18.86
2019-06-15T08:54:49.588Z,18.75
2019-06-15T08:55:49.591Z,18.73
2019-06-15T08:56:49.566Z,18.77
2019-06-15T08:57:49.579Z,18.66
2019-06-15T08:58:55.506Z,18.68
2019-06-15T08:59:50.527Z,18.70
2019-06-15T09:00:49.522Z,18.62
2019-06-15T09:01:49.509Z,18.60
2019-06-15T09:02:49.529Z,18.63
2019-06-15T09:03:49.614Z,18.60
2019-06-15T09:04:49.476Z,18.66
2019-06-15T09:05:49.484Z,18.60
2019-06-15T09:06:49.465Z,18.52
2019-06-15T09:07:49.438Z,18.55
2019-06-15T09:08:49.440Z,18.62
2019-06-15T09:09:49.420Z,18.66
2019-06-15T09:10:49.405Z,18.66
2019-06-15T09:11:49.404Z,18.60
2019-06-15T09:12:49.396Z,18.52
2019-06-15T09:13:49.368Z,18.45
2019-06-15T09:14:49.372Z,18.40
2019-06-15T09:15:49.354Z,18.56
2019-06-15T09:16:49.337Z,18.44
2019-06-15T09:17:49.335Z,18.40
2019-06-15T09:18:49.313Z,18.49
2019-06-15T09:19:49.312Z,18.40
2019-06-15T09:20:49.288Z,18.43
2019-06-15T09:21:49.276Z,18.47
2019-06-15T09:22:49.293Z,18.47
2019-06-15T09:23:49.260Z,18.56
2019-06-15T09:24:49.249Z,18.58
2019-06-15T09:25:49.243Z,18.41
2019-06-15T09:26:49.220Z,18.53
2019-06-15T09:27:49.212Z,18.47
2019-06-15T09:28:49.224Z,18.38
2019-06-15T09:29:49.188Z,18.38
2019-06-15T09:30:49.177Z,18.45
2019-06-15T09:31:49.175Z,18.52
2019-06-15T09:32:49.154Z,18.52
2019-06-15T09:33:49.143Z,18.62
2019-06-15T09:34:49.148Z,18.74
2019-06-15T09:35:49.136Z,18.86
2019-06-15T09:36:49.108Z,18.92
2019-06-15T09:37:49.117Z,19.09
2019-06-15T09:38:49.085Z,19.21
2019-06-15T09:39:49.104Z,19.33
2019-06-15T09:40:49.064Z,19.47
2019-06-15T09:41:49.051Z,19.48
2019-06-15T09:42:49.060Z,19.62
2019-06-15T09:43:49.027Z,19.62
2019-06-15T09:44:49.020Z,19.67
2019-06-15T09:45:49.008Z,19.76
2019-06-15T09:46:49.004Z,19.66
2019-06-15T09:47:48.997Z,19.58
2019-06-15T09:48:48.985Z,19.49
2019-06-15T09:49:48.989Z,19.44
2019-06-15T09:50:48.968Z,19.40
2019-06-15T09:51:48.944Z,19.40
2019-06-15T09:52:48.971Z,19.33
2019-06-15T09:53:48.944Z,19.39
2019-06-15T09:54:48.912Z,19.39
2019-06-15T09:55:48.908Z,19.39
2019-06-15T09:56:48.885Z,19.56
2019-06-15T09:57:48.916Z,19.64
2019-06-15T09:58:48.865Z,19.58
2019-06-15T09:59:48.868Z,19.66
2019-06-15T10:00:48.856Z,19.64
2019-06-15T10:01:48.827Z,19.70
2019-06-15T10:02:48.848Z,19.69
2019-06-15T10:03:48.807Z,19.70
2019-06-15T10:04:48.806Z,19.56
2019-06-15T10:05:48.817Z,19.58
2019-06-15T10:06:48.771Z,19.51
2019-06-15T10:07:48.784Z,19.58
2019-06-15T10:08:48.749Z,19.58
2019-06-15T10:09:48.741Z,19.58
2019-06-15T10:10:48.728Z,19.62
2019-06-15T10:11:48.727Z,19.82
2019-06-15T10:12:48.705Z,20.04
2019-06-15T10:13:48.691Z,20.10
2019-06-15T10:14:48.675Z,19.96
2019-06-15T10:15:48.665Z,19.96
2019-06-15T10:16:48.667Z,20.16
2019-06-15T10:17:48.661Z,20.24
2019-06-15T10:18:48.645Z,20.37
2019-06-15T10:19:48.631Z,20.28
2019-06-15T10:20:48.615Z,20.44
2019-06-15T10:21:48.600Z,20.52
2019-06-15T10:22:48.613Z,20.48
2019-06-15T10:23:48.619Z,20.59
2019-06-15T10:24:48.574Z,20.67
2019-06-15T10:25:50.555Z,20.72
2019-06-15T10:26:48.544Z,20.67
2019-06-15T10:27:48.531Z,20.80
2019-06-15T10:28:48.904Z,20.87
2019-06-15T10:29:48.530Z,20.82
2019-06-15T10:30:48.542Z,20.90
2019-06-15T10:31:48.516Z,21.00
2019-06-15T10:32:48.531Z,21.18
2019-06-15T10:33:48.467Z,21.12
2019-06-15T10:34:48.932Z,21.15
2019-06-15T10:35:48.460Z,21.17
2019-06-15T10:36:48.509Z,21.24
2019-06-15T10:37:48.429Z,21.03
2019-06-15T10:38:48.419Z,21.03
2019-06-15T10:39:48.402Z,21.09
2019-06-15T10:40:48.443Z,20.92
2019-06-15T10:41:48.378Z,20.99
2019-06-15T10:42:48.634Z,20.95
2019-06-15T10:43:48.356Z,20.90
2019-06-15T10:44:48.351Z,20.75
2019-06-15T10:45:48.368Z,20.74
2019-06-15T10:46:48.319Z,20.84
2019-06-15T10:47:48.320Z,20.74
2019-06-15T10:48:48.331Z,20.74
2019-06-15T10:49:48.287Z,20.70
2019-06-15T10:50:48.275Z,20.63
2019-06-15T10:51:48.284Z,20.74
2019-06-15T10:52:48.336Z,20.51
2019-06-15T10:53:48.239Z,20.48
2019-06-15T10:54:48.242Z,20.37
2019-06-15T10:55:48.215Z,20.25
2019-06-15T10:56:48.212Z,20.32
2019-06-15T10:57:48.256Z,20.29
2019-06-15T10:58:48.207Z,20.28
2019-06-15T10:59:56.903Z,20.26
2019-06-15T11:00:49.167Z,20.22
2019-06-15T11:01:48.161Z,20.16
2019-06-15T11:02:48.151Z,20.21
2019-06-15T11:03:48.173Z,20.13
2019-06-15T11:04:48.117Z,20.13
2019-06-15T11:05:48.115Z,20.06
2019-06-15T11:06:48.108Z,20.00
2019-06-15T11:07:48.120Z,19.89
2019-06-15T11:08:48.099Z,19.73
2019-06-15T11:09:48.075Z,19.76
2019-06-15T11:10:48.056Z,19.62
2019-06-15T11:11:48.062Z,19.59
2019-06-15T11:12:48.032Z,19.51
2019-06-15T11:13:48.039Z,19.37
2019-06-15T11:14:48.003Z,19.19
2019-06-15T11:15:47.999Z,18.90
2019-06-15T11:16:47.987Z,18.95
2019-06-15T11:17:47.978Z,18.96
2019-06-15T11:18:47.970Z,18.89
2019-06-15T11:19:47.964Z,18.88
2019-06-15T11:20:47.938Z,18.71
2019-06-15T11:21:47.922Z,18.77
2019-06-15T11:22:47.916Z,18.83
2019-06-15T11:23:47.907Z,18.96
2019-06-15T11:24:47.896Z,18.93
2019-06-15T11:25:47.903Z,18.98
2019-06-15T11:26:47.871Z,19.02
2019-06-15T11:27:47.861Z,19.08
2019-06-15T11:28:47.851Z,18.98
2019-06-15T11:29:47.836Z,19.14
2019-06-15T11:30:47.843Z,19.14
2019-06-15T11:31:47.813Z,19.27
2019-06-15T11:32:47.817Z,19.39
2019-06-15T11:33:47.795Z,19.41
2019-06-15T11:34:47.775Z,19.49
2019-06-15T11:35:47.775Z,19.31
2019-06-15T11:36:47.767Z,19.36
2019-06-15T11:37:47.743Z,19.33
2019-06-15T11:38:47.727Z,19.27
2019-06-15T11:39:47.715Z,19.22
2019-06-15T11:40:47.740Z,19.12
2019-06-15T11:41:47.711Z,19.08
2019-06-15T11:42:49.757Z,19.22
2019-06-15T11:43:47.679Z,19.27
2019-06-15T11:44:47.663Z,19.11
2019-06-15T11:45:47.650Z,19.11
2019-06-15T11:46:47.639Z,18.93
2019-06-15T11:47:47.643Z,19.00
2019-06-15T11:48:47.676Z,18.93
2019-06-15T11:49:47.626Z,18.89
2019-06-15T11:50:47.655Z,18.84
2019-06-15T11:51:47.615Z,18.84
2019-06-15T11:52:47.571Z,18.90
2019-06-15T11:53:47.691Z,18.83
2019-06-15T11:54:47.561Z,18.86
2019-06-15T11:55:47.540Z,18.84
2019-06-15T11:56:47.528Z,18.78
2019-06-15T11:57:47.516Z,18.83
2019-06-15T11:58:47.529Z,18.92
2019-06-15T11:59:47.509Z,18.92
2019-06-15T12:00:47.485Z,18.96
2019-06-15T12:01:47.465Z,19.08
2019-06-15T12:02:47.459Z,19.08
2019-06-15T12:03:47.450Z,19.08
2019-06-15T12:04:58.067Z,19.02
2019-06-15T12:05:48.425Z,19.21
2019-06-15T12:06:47.408Z,19.37
2019-06-15T12:07:47.408Z,19.56
2019-06-15T12:08:47.506Z,19.62
2019-06-15T12:09:47.377Z,19.77
2019-06-15T12:10:47.382Z,19.88
2019-06-15T12:11:47.358Z,19.92
2019-06-15T12:12:47.349Z,20.02
2019-06-15T12:13:47.335Z,19.99
2019-06-15T12:14:47.330Z,20.18
2019-06-15T12:15:47.320Z,20.31
2019-06-15T12:16:47.322Z,20.26
2019-06-15T12:17:47.289Z,20.39
2019-06-15T12:18:47.276Z,20.34
2019-06-15T12:19:47.290Z,20.31
2019-06-15T12:20:47.256Z,20.28
2019-06-15T12:21:47.240Z,20.21
2019-06-15T12:22:47.252Z,20.16
2019-06-15T12:23:47.224Z,20.16
2019-06-15T12:24:47.242Z,20.31
2019-06-15T12:25:47.208Z,20.34
2019-06-15T12:26:47.214Z,20.52
2019-06-15T12:27:47.193Z,20.80
2019-06-15T12:28:47.177Z,20.88
2019-06-15T12:29:47.152Z,20.77
2019-06-15T12:30:47.967Z,20.66
2019-06-15T12:31:47.133Z,20.48
2019-06-15T12:32:47.199Z,20.41
2019-06-15T12:33:47.124Z,20.51
2019-06-15T12:34:47.110Z,20.74
2019-06-15T12:35:47.102Z,20.96
2019-06-15T12:36:47.088Z,21.09
2019-06-15T12:37:47.077Z,20.96
2019-06-15T12:38:47.075Z,20.90
2019-06-15T12:39:47.068Z,20.99
2019-06-15T12:40:47.028Z,21.03
2019-06-15T12:41:47.041Z,21.18
2019-06-15T12:42:47.009Z,21.52
2019-06-15T12:43:47.004Z,21.61
2019-06-15T12:44:47.016Z,21.76
2019-06-15T12:45:46.980Z,21.77
2019-06-15T12:46:46.974Z,21.76
2019-06-15T12:47:46.952Z,21.66
2019-06-15T12:48:47.016Z,21.72
2019-06-15T12:49:46.934Z,21.82
2019-06-15T12:50:46.948Z,21.95
2019-06-15T12:51:46.913Z,22.10
2019-06-15T12:52:46.916Z,22.17